createdAt,value
2022-12-18T00:03:32.378Z,19.80
2022-12-18T00:08:35.303Z,21.23
2022-12-18T00:13:38.515Z,23.00
2022-12-18T00:18:43.292Z,19.30
2022-12-18T00:23:46.701Z,20.73
2022-12-18T00:28:50.151Z,21.57
2022-12-18T00:33:55.884Z,24.20
2022-12-18T00:38:59.685Z,21.67
2022-12-18T00:44:02.789Z,22.27
2022-12-18T00:49:07.061Z,18.90
2022-12-18T00:54:09.917Z,22.47
2022-12-18T00:59:14.301Z,23.03
2022-12-18T01:04:18.488Z,21.53
2022-12-18T01:09:22.053Z,24.63
2022-12-18T01:14:24.929Z,22.73
2022-12-18T01:19:30.738Z,21.47
2022-12-18T01:24:33.488Z,21.63
2022-12-18T01:29:36.232Z,18.63
2022-12-18T01:34:40.586Z,20.63
2022-12-18T01:39:43.532Z,21.53
2022-12-18T01:45:02.597Z,19.90
2022-12-18T01:50:10.375Z,20.90
2022-12-18T01:55:13.899Z,19.93
2022-12-18T02:00:20.177Z,19.63
2022-12-18T02:05:30.598Z,20.53
2022-12-18T02:10:36.733Z,21.93
2022-12-18T02:15:42.802Z,21.10
2022-12-18T02:20:50.241Z,19.23
2022-12-18T02:26:03.943Z,24.07
2022-12-18T02:31:08.838Z,23.43
2022-12-18T02:36:13.138Z,22.70
2022-12-18T02:41:18.054Z,22.03
2022-12-18T02:46:31.227Z,20.70
2022-12-18T02:51:42.004Z,20.23
2022-12-18T02:56:51.381Z,22.00
2022-12-18T03:02:00.038Z,19.47
2022-12-18T03:07:05.629Z,21.30
2022-12-18T03:12:25.633Z,18.87
2022-12-18T03:17:33.579Z,19.57
2022-12-18T03:22:37.545Z,19.93
2022-12-18T03:27:46.074Z,16.97
2022-12-18T03:32:59.997Z,17.67
2022-12-18T03:38:03.953Z,19.27
2022-12-18T03:43:13.209Z,18.10
2022-12-18T03:48:20.814Z,16.40
2022-12-18T03:53:30.446Z,16.20
2022-12-18T03:58:37.676Z,18.90
2022-12-18T04:03:51.918Z,21.63
2022-12-18T04:08:56.564Z,18.87
2022-12-18T04:14:07.022Z,16.73
2022-12-18T04:19:10.547Z,18.77
2022-12-18T04:24:17.007Z,18.97
2022-12-18T04:29:31.536Z,19.27
2022-12-18T04:34:35.780Z,19.67
2022-12-18T04:39:38.892Z,20.90
2022-12-18T04:44:48.730Z,22.43
2022-12-18T04:49:51.554Z,16.43
2022-12-18T04:54:54.371Z,16.47
2022-12-18T04:59:58.578Z,17.07
2022-12-18T05:05:01.338Z,18.10
2022-12-18T05:10:10.387Z,16.03
2022-12-18T05:15:14.538Z,15.70
2022-12-18T05:20:17.354Z,17.27
2022-12-18T05:25:20.389Z,16.47
2022-12-18T05:30:24.799Z,17.83
2022-12-18T05:35:27.595Z,15.77
2022-12-18T05:40:30.868Z,15.87
2022-12-18T05:45:39.099Z,16.53
2022-12-18T05:50:43.064Z,15.40
2022-12-18T05:55:46.469Z,19.07
2022-12-18T06:00:50.717Z,16.37
2022-12-18T06:05:53.515Z,16.97
2022-12-18T06:10:56.491Z,17.60
2022-12-18T06:16:04.207Z,16.20
2022-12-18T06:21:07.371Z,18.20
2022-12-18T06:26:12.332Z,16.57
2022-12-18T06:31:16.547Z,18.67
2022-12-18T06:36:19.542Z,18.03
2022-12-18T06:41:23.357Z,14.87
2022-12-18T06:46:27.538Z,15.57
2022-12-18T06:51:30.273Z,15.47
2022-12-18T06:56:33.057Z,16.43
2022-12-18T07:01:37.550Z,13.53
2022-12-18T07:06:40.464Z,12.30
2022-12-18T07:11:43.288Z,14.57
2022-12-18T07:16:47.597Z,12.70
2022-12-18T07:21:51.675Z,12.33
2022-12-18T07:26:54.756Z,12.77
2022-12-18T07:31:59.230Z,11.20
2022-12-18T07:37:02.144Z,10.60
2022-12-18T07:42:23.060Z,9.50
2022-12-18T07:47:27.435Z,9.13
2022-12-18T07:52:31.083Z,9.73
2022-12-18T07:57:50.031Z,9.80
2022-12-18T08:02:55.669Z,8.77
2022-12-18T08:07:58.507Z,9.00
2022-12-18T08:13:04.906Z,10.17
2022-12-18T08:18:14.053Z,10.23
2022-12-18T08:23:17.297Z,10.00
2022-12-18T08:28:20.295Z,9.07
2022-12-18T08:33:24.515Z,9.93
2022-12-18T08:38:27.325Z,9.00
2022-12-18T08:43:47.627Z,9.73
2022-12-18T08:48:52.376Z,9.87
2022-12-18T08:53:55.241Z,10.47
2022-12-18T08:58:58.281Z,10.87
2022-12-18T09:04:02.440Z,11.13
2022-12-18T09:09:06.178Z,11.23
2022-12-18T09:14:09.151Z,10.47
2022-12-18T09:19:13.333Z,11.73
2022-12-18T09:24:16.277Z,12.40
2022-12-18T09:29:19.219Z,9.43
2022-12-18T09:34:23.667Z,11.87
2022-12-18T09:39:26.456Z,11.80
2022-12-18T09:44:31.254Z,11.10
2022-12-18T09:49:37.371Z,10.80
2022-12-18T09:54:41.635Z,11.07
2022-12-18T09:59:46.963Z,10.97
2022-12-18T10:05:02.987Z,12.33
2022-12-18T10:10:09.427Z,11.47
2022-12-18T10:15:17.517Z,10.60
2022-12-18T10:20:27.964Z,11.17
2022-12-18T10:25:34.194Z,11.10
2022-12-18T10:30:37.075Z,13.67
2022-12-18T10:35:43.371Z,11.33
2022-12-18T10:40:54.260Z,9.57
2022-12-18T10:46:03.844Z,9.80
2022-12-18T10:51:12.694Z,10.37
2022-12-18T10:56:22.224Z,8.73
2022-12-18T11:01:25.202Z,9.17
2022-12-18T11:06:29.547Z,9.50
2022-12-18T11:11:33.770Z,11.40
2022-12-18T11:16:38.832Z,10.33
2022-12-18T11:21:44.006Z,9.97
2022-12-18T11:26:46.829Z,8.20
2022-12-18T11:31:49.704Z,8.57
2022-12-18T11:36:54.689Z,10.03
2022-12-18T11:42:13.478Z,7.57
2022-12-18T11:47:24.074Z,7.63
2022-12-18T11:52:31.359Z,8.27
2022-12-18T11:57:39.711Z,8.30
2022-12-18T12:03:06.245Z,8.03
2022-12-18T12:08:17.558Z,7.37
2022-12-18T12:13:29.899Z,7.10
2022-12-18T12:18:43.508Z,7.63
2022-12-18T12:23:56.223Z,6.87
2022-12-18T12:29:10.438Z,7.13
2022-12-18T12:34:19.567Z,8.27
2022-12-18T12:39:26.487Z,6.93
2022-12-18T12:44:31.910Z,7.00
2022-12-18T12:49:40.622Z,7.37
2022-12-18T12:54:45.984Z,6.87
2022-12-18T12:59:53.404Z,7.60
2022-12-18T13:04:59.853Z,7.30
2022-12-18T13:10:35.618Z,7.07
2022-12-18T13:15:44.216Z,6.73
2022-12-18T13:20:54.456Z,6.07
2022-12-18T13:26:01.676Z,7.90
2022-12-18T13:31:05.118Z,5.73
2022-12-18T13:36:15.538Z,7.73
2022-12-18T13:41:28.116Z,10.43
2022-12-18T13:46:32.857Z,8.40
2022-12-18T13:51:36.576Z,6.67
2022-12-18T13:56:46.389Z,6.57
2022-12-18T14:01:53.747Z,6.87
2022-12-18T14:07:00.127Z,6.53
2022-12-18T14:12:37.113Z,7.13
2022-12-18T14:17:39.919Z,7.10
2022-12-18T14:22:45.388Z,6.83
2022-12-18T14:27:52.493Z,6.93
2022-12-18T14:33:11.182Z,7.20
2022-12-18T14:38:26.318Z,7.57
2022-12-18T14:43:31.703Z,6.27
2022-12-18T14:48:39.852Z,6.80
2022-12-18T14:53:50.560Z,7.10
2022-12-18T14:58:59.506Z,7.40
2022-12-18T15:04:04.024Z,7.37
2022-12-18T15:09:23.379Z,8.10
2022-12-18T15:14:34.006Z,5.50
2022-12-18T15:19:40.919Z,8.83
2022-12-18T15:24:44.142Z,6.50
2022-12-18T15:30:02.177Z,6.97
2022-12-18T15:35:09.895Z,7.67
2022-12-18T15:40:15.323Z,8.10
2022-12-18T15:45:21.791Z,6.87
2022-12-18T15:50:27.316Z,6.63
2022-12-18T15:55:48.945Z,7.63
2022-12-18T16:00:53.341Z,8.87
2022-12-18T16:05:56.240Z,9.10
2022-12-18T16:11:00.159Z,8.17
2022-12-18T16:16:04.413Z,8.03
2022-12-18T16:21:07.564Z,6.73
2022-12-18T16:26:10.364Z,7.00
2022-12-18T16:31:14.686Z,8.23
2022-12-18T16:36:17.617Z,8.57
2022-12-18T16:41:33.055Z,6.50
2022-12-18T16:46:37.376Z,6.90
2022-12-18T16:51:40.317Z,8.70
2022-12-18T16:56:43.156Z,6.80
2022-12-18T17:01:49.997Z,8.40
2022-12-18T17:06:54.202Z,8.03
2022-12-18T17:11:57.122Z,8.37
2022-12-18T17:17:20.858Z,7.93
2022-12-18T17:22:24.449Z,7.97
2022-12-18T17:27:27.388Z,8.67
2022-12-18T17:32:31.557Z,8.40
2022-12-18T17:37:34.420Z,8.17
2022-12-18T17:42:37.501Z,7.97
2022-12-18T17:47:42.253Z,9.07
2022-12-18T17:52:45.103Z,8.60
2022-12-18T17:57:47.924Z,7.83
2022-12-18T18:02:52.527Z,9.50
2022-12-18T18:07:55.560Z,8.07
2022-12-18T18:13:16.117Z,9.60
2022-12-18T18:18:20.299Z,9.10
2022-12-18T18:23:25.022Z,9.37
2022-12-18T18:28:27.896Z,7.90
2022-12-18T18:33:32.386Z,8.20
2022-12-18T18:38:35.195Z,8.97
2022-12-18T18:43:38.243Z,8.57
2022-12-18T18:48:43.013Z,9.43
2022-12-18T18:53:48.268Z,10.23
2022-12-18T18:58:51.779Z,8.23
2022-12-18T19:03:56.220Z,7.97
2022-12-18T19:08:59.548Z,9.83
2022-12-18T19:14:04.581Z,8.37
2022-12-18T19:19:09.774Z,9.80
2022-12-18T19:24:12.818Z,9.60
2022-12-18T19:29:15.959Z,8.73
2022-12-18T19:34:20.140Z,8.93
2022-12-18T19:39:23.033Z,9.37
2022-12-18T19:44:26.841Z,9.27
2022-12-18T19:49:32.649Z,7.93
2022-12-18T19:54:35.546Z,7.23
2022-12-18T19:59:38.986Z,9.73
2022-12-18T20:04:43.805Z,9.33
2022-12-18T20:09:46.563Z,9.10
2022-12-18T20:14:49.723Z,8.90
2022-12-18T20:19:53.891Z,10.37
2022-12-18T20:24:57.002Z,9.03
2022-12-18T20:29:59.932Z,10.00
2022-12-18T20:35:04.390Z,8.53
2022-12-18T20:40:10.517Z,8.83
2022-12-18T20:45:13.415Z,9.40
2022-12-18T20:50:17.790Z,10.27
2022-12-18T20:55:20.650Z,11.30
2022-12-18T21:00:23.506Z,10.17
2022-12-18T21:05:27.636Z,11.20
2022-12-18T21:10:30.537Z,10.97
2022-12-18T21:15:33.791Z,11.03
2022-12-18T21:20:37.977Z,9.00
2022-12-18T21:25:40.929Z,10.47
2022-12-18T21:30:44.042Z,11.90
2022-12-18T21:35:48.317Z,12.80
2022-12-18T21:40:51.143Z,12.93
2022-12-18T21:45:54.138Z,11.20
2022-12-18T21:50:59.896Z,10.17
2022-12-18T21:56:02.776Z,11.80
2022-12-18T22:01:05.621Z,11.60
2022-12-18T22:06:10.037Z,9.83
2022-12-18T22:11:13.849Z,11.20
2022-12-18T22:16:17.431Z,13.67
2022-12-18T22:21:29.237Z,14.47
2022-12-18T22:26:39.468Z,12.73
2022-12-18T22:31:43.118Z,13.10
2022-12-18T22:36:48.935Z,14.27
2022-12-18T22:41:51.798Z,13.17
2022-12-18T22:46:56.189Z,13.90
2022-12-18T22:52:12.861Z,14.23
2022-12-18T22:57:17.749Z,14.03
2022-12-18T23:02:21.000Z,15.27
2022-12-18T23:07:25.270Z,13.30
2022-12-18T23:12:28.140Z,17.60
2022-12-18T23:17:33.069Z,15.13
2022-12-18T23:22:37.363Z,15.20
2022-12-18T23:27:42.918Z,15.47
2022-12-18T23:32:45.748Z,15.47
2022-12-18T23:37:58.693Z,15.40
2022-12-18T23:43:02.401Z,16.53
2022-12-18T23:48:05.446Z,17.00
2022-12-18T23:53:10.401Z,14.40
2022-12-18T23:58:18.376Z,15.43
